createdAt,value
2018-03-04T00:00:04.853Z,64.25
2018-03-04T00:02:31.130Z,61.63
2018-03-04T00:04:57.602Z,64.03
2018-03-04T00:07:24.697Z,60.45
2018-03-04T00:09:50.838Z,60.35
2018-03-04T00:12:17.667Z,60.28
2018-03-04T00:14:43.766Z,59.85
2018-03-04T00:17:09.867Z,60.00
2018-03-04T00:19:35.978Z,61.58
2018-03-04T00:22:03.582Z,54.95
2018-03-04T00:24:29.793Z,63.72
2018-03-04T00:26:56.735Z,63.25
2018-03-04T00:29:23.642Z,61.97
2018-03-04T00:31:50.727Z,64.65
2018-03-04T00:34:17.916Z,62.00
2018-03-04T00:36:43.963Z,58.13
2018-03-04T00:39:10.189Z,60.90
2018-03-04T00:41:37.524Z,64.30
2018-03-04T00:44:03.982Z,60.28
2018-03-04T00:46:30.095Z,66.22
2018-03-04T00:48:56.286Z,66.28
2018-03-04T00:51:22.365Z,61.55
2018-03-04T00:53:48.888Z,69.43
2018-03-04T00:56:15.864Z,66.93
2018-03-04T00:58:42.122Z,60.97
2018-03-04T01:01:08.311Z,63.03
2018-03-04T01:03:34.356Z,67.10
2018-03-04T01:06:00.458Z,65.47
2018-03-04T01:08:27.322Z,68.60
2018-03-04T01:10:53.859Z,68.28
2018-03-04T01:13:20.773Z,64.35
2018-03-04T01:15:48.154Z,65.07
2018-03-04T01:18:15.027Z,61.20
2018-03-04T01:20:41.516Z,64.85
2018-03-04T01:23:07.804Z,64.80
2018-03-04T01:25:34.038Z,64.85
2018-03-04T01:28:01.065Z,64.93
2018-03-04T01:30:28.368Z,64.85
2018-03-04T01:32:55.204Z,66.68
2018-03-04T01:35:21.451Z,60.95
2018-03-04T01:37:47.518Z,63.78
2018-03-04T01:40:13.702Z,64.97
2018-03-04T01:42:39.769Z,69.00
2018-03-04T01:45:05.939Z,67.45
2018-03-04T01:47:32.808Z,65.35
2018-03-04T01:49:59.073Z,66.45
2018-03-04T01:52:25.211Z,63.28
2018-03-04T01:54:51.372Z,65.57
2018-03-04T01:57:18.229Z,61.35
2018-03-04T01:59:44.504Z,65.22
2018-03-04T02:02:10.638Z,64.75
2018-03-04T02:04:36.861Z,68.10
2018-03-04T02:07:03.619Z,65.32
2018-03-04T02:09:29.694Z,67.57
2018-03-04T02:11:55.778Z,66.70
2018-03-04T02:14:21.903Z,67.70
2018-03-04T02:16:48.058Z,67.03
2018-03-04T02:19:14.166Z,67.60
2018-03-04T02:21:41.263Z,67.40
2018-03-04T02:24:07.329Z,63.55
2018-03-04T02:26:34.288Z,66.75
2018-03-04T02:29:00.453Z,63.20
2018-03-04T02:31:27.513Z,66.40
2018-03-04T02:33:53.680Z,68.45
2018-03-04T02:36:20.818Z,62.75
2018-03-04T02:38:47.993Z,64.28
2018-03-04T02:41:14.924Z,65.82
2018-03-04T02:43:41.356Z,67.12
2018-03-04T02:46:07.570Z,64.85
2018-03-04T02:48:33.784Z,64.78
2018-03-04T02:50:59.843Z,69.70
2018-03-04T02:53:26.040Z,70.03
2018-03-04T02:55:52.511Z,69.93
2018-03-04T02:58:18.692Z,65.68
2018-03-04T03:00:45.440Z,65.65
2018-03-04T03:03:11.586Z,71.43
2018-03-04T03:05:37.901Z,66.40
2018-03-04T03:08:04.875Z,65.32
2018-03-04T03:10:31.379Z,63.40
2018-03-04T03:12:58.327Z,67.78
2018-03-04T03:15:25.268Z,67.05
2018-03-04T03:17:51.414Z,66.45
2018-03-04T03:20:18.237Z,63.20
2018-03-04T03:22:45.243Z,65.68
2018-03-04T03:25:11.631Z,63.83
2018-03-04T03:27:38.663Z,66.80
2018-03-04T03:30:04.762Z,61.78
2018-03-04T03:32:30.870Z,66.72
2018-03-04T03:34:57.926Z,68.07
2018-03-04T03:37:24.156Z,63.75
2018-03-04T03:39:50.293Z,67.35
2018-03-04T03:42:16.753Z,64.50
2018-03-04T03:44:42.888Z,61.97
2018-03-04T03:47:09.173Z,68.07
2018-03-04T03:49:35.261Z,70.32
2018-03-04T03:52:01.461Z,64.72
2018-03-04T03:54:28.345Z,61.88
2018-03-04T03:56:54.529Z,64.55
2018-03-04T03:59:20.643Z,61.58
2018-03-04T04:01:46.848Z,64.53
2018-03-04T04:04:12.977Z,64.82
2018-03-04T04:06:39.135Z,63.40
2018-03-04T04:09:05.768Z,69.93
2018-03-04T04:11:31.924Z,65.07
2018-03-04T04:13:58.105Z,63.10
2018-03-04T04:16:24.206Z,66.97
2018-03-04T04:18:50.731Z,63.97
2018-03-04T04:21:17.614Z,68.22
2018-03-04T04:23:44.427Z,66.70
2018-03-04T04:26:10.480Z,65.43
2018-03-04T04:28:37.292Z,68.03
2018-03-04T04:31:03.736Z,69.93
2018-03-04T04:33:29.835Z,67.12
2018-03-04T04:35:55.977Z,66.97
2018-03-04T04:38:22.075Z,69.53
2018-03-04T04:40:48.148Z,71.03
2018-03-04T04:43:14.264Z,69.85
2018-03-04T04:45:40.363Z,65.80
2018-03-04T04:48:06.640Z,65.50
2018-03-04T04:50:33.029Z,65.82
2018-03-04T04:52:59.363Z,66.03
2018-03-04T04:55:25.412Z,67.68
2018-03-04T04:57:53.345Z,63.95
2018-03-04T05:00:20.356Z,67.72
2018-03-04T05:02:46.420Z,64.75
2018-03-04T05:05:12.698Z,62.33
2018-03-04T05:07:38.926Z,66.35
2018-03-04T05:10:05.231Z,62.40
2018-03-04T05:12:33.077Z,64.28
2018-03-04T05:14:59.275Z,69.00
2018-03-04T05:17:25.961Z,63.45
2018-03-04T05:19:52.066Z,64.00
2018-03-04T05:22:18.214Z,65.62
2018-03-04T05:24:44.327Z,67.75
2018-03-04T05:27:13.623Z,65.05
2018-03-04T05:29:39.854Z,64.82
2018-03-04T05:32:07.778Z,69.30
2018-03-04T05:34:33.918Z,63.80
2018-03-04T05:37:01.012Z,64.95
2018-03-04T05:39:27.421Z,70.40
2018-03-04T05:41:53.618Z,66.60
2018-03-04T05:44:27.050Z,60.70
2018-03-04T05:46:54.772Z,67.50
2018-03-04T05:49:22.122Z,65.78
2018-03-04T05:51:49.002Z,65.05
2018-03-04T05:54:15.268Z,66.32
2018-03-04T05:56:44.112Z,65.35
2018-03-04T05:59:10.239Z,70.85
2018-03-04T06:01:36.759Z,62.55
2018-03-04T06:04:03.249Z,65.95
2018-03-04T06:06:29.350Z,63.70
2018-03-04T06:08:55.405Z,67.72
2018-03-04T06:11:21.559Z,66.30
2018-03-04T06:13:48.582Z,66.72
2018-03-04T06:16:14.817Z,65.12
2018-03-04T06:18:40.948Z,64.97
2018-03-04T06:21:07.867Z,64.90
2018-03-04T06:23:34.007Z,62.00
2018-03-04T06:26:00.975Z,69.45
2018-03-04T06:28:28.080Z,66.28
2018-03-04T06:30:55.148Z,69.40
2018-03-04T06:33:21.701Z,68.37
2018-03-04T06:35:47.827Z,69.75
2018-03-04T06:38:13.988Z,72.72
2018-03-04T06:40:40.087Z,65.20
2018-03-04T06:43:06.235Z,68.50
2018-03-04T06:45:32.342Z,68.10
2018-03-04T06:47:58.560Z,63.70
2018-03-04T06:50:25.788Z,64.62
2018-03-04T06:52:52.632Z,66.00
2018-03-04T06:55:19.152Z,68.37
2018-03-04T06:57:45.397Z,66.00
2018-03-04T07:00:11.713Z,68.93
2018-03-04T07:02:37.847Z,61.55
2018-03-04T07:05:04.965Z,65.90
2018-03-04T07:07:31.828Z,64.05
2018-03-04T07:09:57.996Z,63.67
2018-03-04T07:12:24.908Z,62.47
2018-03-04T07:14:51.119Z,67.87
2018-03-04T07:17:18.022Z,65.25
2018-03-04T07:19:45.134Z,63.90
2018-03-04T07:22:11.973Z,67.50
2018-03-04T07:24:38.006Z,65.32
2018-03-04T07:27:08.107Z,64.28
2018-03-04T07:29:34.150Z,66.62
2018-03-04T07:32:00.831Z,67.12
2018-03-04T07:34:26.959Z,61.45
2018-03-04T07:36:53.204Z,65.78
2018-03-04T07:39:19.328Z,63.58
2018-03-04T07:41:45.527Z,64.68
2018-03-04T07:44:11.959Z,64.15
2018-03-04T07:46:38.047Z,63.15
2018-03-04T07:49:04.165Z,65.97
2018-03-04T07:51:31.259Z,65.25
2018-03-04T07:53:57.660Z,66.30
2018-03-04T07:56:24.831Z,66.75
2018-03-04T07:58:50.925Z,66.50
2018-03-04T08:01:17.064Z,68.10
2018-03-04T08:03:43.320Z,66.93
2018-03-04T08:06:09.843Z,69.32
2018-03-04T08:08:36.492Z,64.95
2018-03-04T08:11:02.545Z,64.28
2018-03-04T08:13:28.749Z,65.60
2018-03-04T08:15:54.922Z,63.10
2018-03-04T08:18:21.916Z,67.53
2018-03-04T08:20:48.046Z,67.85
2018-03-04T08:23:14.168Z,66.20
2018-03-04T08:25:40.968Z,65.07
2018-03-04T08:28:19.592Z,66.18
2018-03-04T08:30:45.616Z,66.35
2018-03-04T08:33:12.861Z,71.93
2018-03-04T08:35:38.984Z,67.82
2018-03-04T08:38:05.518Z,62.13
2018-03-04T08:40:31.848Z,63.97
2018-03-04T08:43:00.590Z,65.93
2018-03-04T08:45:28.755Z,69.68
2018-03-04T08:47:55.012Z,68.03
2018-03-04T08:50:21.240Z,66.00
2018-03-04T08:52:47.695Z,65.32
2018-03-04T08:55:14.192Z,75.20
2018-03-04T08:57:40.671Z,65.07
2018-03-04T09:00:07.907Z,67.97
2018-03-04T09:02:34.023Z,68.47
2018-03-04T09:05:00.105Z,65.90
2018-03-04T09:07:27.085Z,63.60
2018-03-04T09:09:53.601Z,65.32
2018-03-04T09:12:21.232Z,64.35
2018-03-04T09:14:48.644Z,65.15
2018-03-04T09:17:15.468Z,66.07
2018-03-04T09:19:41.858Z,63.22
2018-03-04T09:22:07.993Z,66.25
2018-03-04T09:24:34.923Z,62.22
2018-03-04T09:27:01.091Z,64.40
2018-03-04T09:29:28.535Z,61.28
2018-03-04T09:31:54.679Z,68.40
2018-03-04T09:34:20.764Z,67.05
2018-03-04T09:36:47.260Z,64.55
2018-03-04T09:39:14.658Z,65.82
2018-03-04T09:41:41.694Z,74.25
2018-03-04T09:44:08.958Z,73.22
2018-03-04T09:46:35.842Z,71.95
2018-03-04T09:49:02.641Z,71.32
2018-03-04T09:51:28.870Z,78.10
2018-03-04T09:53:55.805Z,71.45
2018-03-04T09:56:22.100Z,74.32
2018-03-04T09:58:48.369Z,69.53
2018-03-04T10:01:15.622Z,71.68
2018-03-04T10:03:41.729Z,69.60
2018-03-04T10:06:08.029Z,66.03
2018-03-04T10:08:34.288Z,61.35
2018-03-04T10:11:00.444Z,69.60
2018-03-04T10:13:27.314Z,64.30
2018-03-04T10:15:53.528Z,69.90
2018-03-04T10:18:20.275Z,64.68
2018-03-04T10:20:47.342Z,65.43
2018-03-04T10:23:13.646Z,64.18
2018-03-04T10:25:40.350Z,63.95
2018-03-04T10:28:07.091Z,64.50
2018-03-04T10:30:33.185Z,63.17
2018-03-04T10:32:59.419Z,68.65
2018-03-04T10:35:25.706Z,67.65
2018-03-04T10:37:52.536Z,64.90
2018-03-04T10:40:18.916Z,63.03
2018-03-04T10:42:45.670Z,60.77
2018-03-04T10:45:11.786Z,60.47
2018-03-04T10:47:38.069Z,62.65
2018-03-04T10:50:04.185Z,61.40
2018-03-04T10:52:30.394Z,65.00
2018-03-04T10:54:57.085Z,57.73
2018-03-04T10:57:23.960Z,64.13
2018-03-04T10:59:51.309Z,59.90
2018-03-04T11:02:23.153Z,61.20
2018-03-04T11:04:50.577Z,64.20
2018-03-04T11:07:17.420Z,58.87
2018-03-04T11:09:43.583Z,59.20
2018-03-04T11:12:12.186Z,64.63
2018-03-04T11:14:38.408Z,57.50
2018-03-04T11:17:06.064Z,55.40
2018-03-04T11:19:32.229Z,59.87
2018-03-04T11:21:59.994Z,53.93
2018-03-04T11:24:27.811Z,56.50
2018-03-04T11:29:27.918Z,56.70
2018-03-04T11:31:54.476Z,53.40
2018-03-04T11:34:22.723Z,56.13
2018-03-04T11:36:48.848Z,54.00
2018-03-04T11:39:14.967Z,53.87
2018-03-04T11:41:41.635Z,50.37
2018-03-04T11:44:09.232Z,54.47
2018-03-04T11:46:35.529Z,53.10
2018-03-04T11:49:01.631Z,48.07
2018-03-04T11:51:27.710Z,47.90
2018-03-04T11:53:54.082Z,47.20
2018-03-04T11:56:20.974Z,50.00
2018-03-04T11:58:47.873Z,48.63
2018-03-04T12:01:13.940Z,51.13
2018-03-04T12:03:40.335Z,52.03
2018-03-04T12:06:07.347Z,48.57
2018-03-04T12:08:33.547Z,52.20
2018-03-04T12:11:01.651Z,48.67
2018-03-04T12:13:27.853Z,47.40
2018-03-04T12:15:54.984Z,51.27
2018-03-04T12:18:21.679Z,47.10
2018-03-04T12:20:47.897Z,46.30
2018-03-04T12:23:14.006Z,50.03
2018-03-04T12:25:40.826Z,47.50
2018-03-04T12:28:07.862Z,48.60
2018-03-04T12:30:35.386Z,41.73
2018-03-04T12:33:02.138Z,42.70
2018-03-04T12:35:28.283Z,42.73
2018-03-04T12:37:55.073Z,41.37
2018-03-04T12:40:22.049Z,46.90
2018-03-04T12:42:48.157Z,40.93
2018-03-04T12:45:14.672Z,39.63
2018-03-04T12:47:41.639Z,39.27
2018-03-04T12:50:07.716Z,34.60
2018-03-04T12:52:35.453Z,34.90
2018-03-04T12:55:02.712Z,30.83
2018-03-04T12:57:30.090Z,28.70
2018-03-04T12:59:56.282Z,27.00
2018-03-04T13:02:23.553Z,25.27
2018-03-04T13:04:51.000Z,25.87
2018-03-04T13:07:17.851Z,26.37
2018-03-04T13:09:44.337Z,23.47
2018-03-04T13:12:11.913Z,23.90
2018-03-04T13:14:38.758Z,22.17
2018-03-04T13:17:04.995Z,23.17
2018-03-04T13:19:31.380Z,23.40
2018-03-04T13:21:58.099Z,22.27
2018-03-04T13:24:24.692Z,25.37
2018-03-04T13:26:50.934Z,26.03
2018-03-04T13:29:17.167Z,25.07
2018-03-04T13:31:43.841Z,26.97
2018-03-04T13:34:11.580Z,25.80
2018-03-04T13:36:37.709Z,25.80
2018-03-04T13:39:05.232Z,24.40
2018-03-04T13:41:33.118Z,26.00
2018-03-04T13:43:59.317Z,28.47
2018-03-04T13:46:25.395Z,27.13
2018-03-04T13:48:52.382Z,28.70
2018-03-04T13:51:20.759Z,30.70
2018-03-04T13:53:47.822Z,28.33
2018-03-04T13:56:13.956Z,32.30
2018-03-04T13:58:40.991Z,31.50
2018-03-04T14:01:08.001Z,30.67
2018-03-04T14:03:34.830Z,31.90
2018-03-04T14:06:00.946Z,33.10
2018-03-04T14:08:27.533Z,31.33
2018-03-04T14:10:55.563Z,32.87
2018-03-04T14:13:22.198Z,32.70
2018-03-04T14:15:49.398Z,31.63
2018-03-04T14:18:17.107Z,32.20
2018-03-04T14:20:43.262Z,34.87
2018-03-04T14:23:09.497Z,33.50
2018-03-04T14:25:36.710Z,32.83
2018-03-04T14:28:04.552Z,34.00
2018-03-04T14:30:30.759Z,34.60
2018-03-04T14:32:57.376Z,33.87
2018-03-04T14:35:26.570Z,42.30
2018-03-04T14:37:53.544Z,34.13
2018-03-04T14:40:19.722Z,41.67
2018-03-04T14:42:46.696Z,39.10
2018-03-04T14:45:12.897Z,34.93
2018-03-04T14:47:39.221Z,37.57
2018-03-04T14:50:05.446Z,36.50
2018-03-04T14:52:33.044Z,36.50
2018-03-04T14:54:59.935Z,36.43
2018-03-04T14:57:26.006Z,36.10
2018-03-04T14:59:52.320Z,34.47
2018-03-04T15:02:18.658Z,36.97
2018-03-04T15:04:44.820Z,36.27
2018-03-04T15:07:11.006Z,37.10
2018-03-04T15:09:37.150Z,35.70
2018-03-04T15:12:03.283Z,37.63
2018-03-04T15:14:29.303Z,41.30
2018-03-04T15:16:55.745Z,43.23
2018-03-04T15:19:21.966Z,40.60
2018-03-04T15:21:48.185Z,37.87
2018-03-04T15:24:15.368Z,38.87
2018-03-04T15:26:42.273Z,38.17
2018-03-04T15:29:09.148Z,41.53
2018-03-04T15:31:37.426Z,44.23
2018-03-04T15:34:03.487Z,46.57
2018-03-04T15:36:29.669Z,44.97
2018-03-04T15:38:57.736Z,45.80
2018-03-04T15:41:25.688Z,44.17
2018-03-04T15:43:51.761Z,46.43
2018-03-04T15:46:18.035Z,45.27
2018-03-04T15:48:46.055Z,46.50
2018-03-04T15:51:13.258Z,44.40
2018-03-04T15:53:39.420Z,41.07
2018-03-04T15:56:06.305Z,46.77
2018-03-04T15:58:32.735Z,40.90
2018-03-04T16:00:59.044Z,44.40
2018-03-04T16:03:25.247Z,45.13
2018-03-04T16:05:52.599Z,46.17
2018-03-04T16:08:18.880Z,43.43
2018-03-04T16:10:45.696Z,47.40
2018-03-04T16:13:12.815Z,44.10
2018-03-04T16:15:39.912Z,40.57
2018-03-04T16:18:07.314Z,42.40
2018-03-04T16:20:34.067Z,41.73
2018-03-04T16:23:00.960Z,44.57
2018-03-04T16:25:26.958Z,41.30
2018-03-04T16:27:53.336Z,44.60
2018-03-04T16:30:19.440Z,44.33
2018-03-04T16:32:45.612Z,45.50
2018-03-04T16:35:12.786Z,40.80
2018-03-04T16:37:39.653Z,41.90
2018-03-04T16:40:05.761Z,39.70
2018-03-04T16:42:33.043Z,41.10
2018-03-04T16:44:59.433Z,42.93
2018-03-04T16:47:26.305Z,41.47
2018-03-04T16:49:53.370Z,43.93
2018-03-04T16:52:19.602Z,43.00
2018-03-04T16:54:46.082Z,40.60
2018-03-04T16:57:12.834Z,47.40
2018-03-04T16:59:39.052Z,43.73
2018-03-04T17:02:05.448Z,42.63
2018-03-04T17:04:32.369Z,47.60
2018-03-04T17:06:59.215Z,43.70
2018-03-04T17:09:25.556Z,46.20
2018-03-04T17:11:53.511Z,44.00
2018-03-04T17:14:22.783Z,46.20
2018-03-04T17:16:49.035Z,47.50
2018-03-04T17:19:15.233Z,44.97
2018-03-04T17:21:41.430Z,43.33
2018-03-04T17:24:08.498Z,42.80
2018-03-04T17:26:35.192Z,43.60
2018-03-04T17:29:02.247Z,48.80
2018-03-04T17:31:28.289Z,42.20
2018-03-04T17:33:54.409Z,44.73
2018-03-04T17:36:20.496Z,40.70
2018-03-04T17:38:47.514Z,40.63
2018-03-04T17:41:13.679Z,40.10
2018-03-04T17:43:40.547Z,38.07
2018-03-04T17:46:07.790Z,38.67
2018-03-04T17:48:34.341Z,42.10
2018-03-04T17:51:00.458Z,48.90
2018-03-04T17:53:27.098Z,40.40
2018-03-04T17:56:00.559Z,38.13
2018-03-04T17:58:26.783Z,38.90
2018-03-04T18:00:53.050Z,38.70
2018-03-04T18:03:19.292Z,36.50
2018-03-04T18:05:45.432Z,38.13
2018-03-04T18:08:12.976Z,34.50
2018-03-04T18:10:40.092Z,35.10
2018-03-04T18:13:06.332Z,35.20
2018-03-04T18:15:32.493Z,37.40
2018-03-04T18:17:59.312Z,34.60
2018-03-04T18:20:25.468Z,33.23
2018-03-04T18:22:51.784Z,34.13
2018-03-04T18:25:18.027Z,35.73
2018-03-04T18:27:44.534Z,40.80
2018-03-04T18:30:12.098Z,42.03
2018-03-04T18:32:38.217Z,37.40
2018-03-04T18:35:05.714Z,40.00
2018-03-04T18:37:31.924Z,38.23
2018-03-04T18:39:58.000Z,39.00
2018-03-04T18:42:24.168Z,35.50
2018-03-04T18:44:52.665Z,33.97
2018-03-04T18:47:19.610Z,32.50
2018-03-04T18:49:45.743Z,32.57
2018-03-04T18:52:11.851Z,31.70
2018-03-04T18:54:38.041Z,33.43
2018-03-04T18:57:04.185Z,28.90
2018-03-04T18:59:31.812Z,31.50
2018-03-04T19:01:59.004Z,29.60
2018-03-04T19:04:25.173Z,28.67
2018-03-04T19:06:51.428Z,28.80
2018-03-04T19:09:18.380Z,31.23
2018-03-04T19:11:44.973Z,27.43
2018-03-04T19:14:19.687Z,29.30
2018-03-04T19:16:45.998Z,28.83
2018-03-04T19:19:12.231Z,28.60
2018-03-04T19:21:39.937Z,26.57
2018-03-04T19:24:07.018Z,26.43
2018-03-04T19:26:36.014Z,26.40
2018-03-04T19:29:02.210Z,26.83
2018-03-04T19:31:28.753Z,24.87
2018-03-04T19:33:55.026Z,24.10
2018-03-04T19:36:21.375Z,25.13
2018-03-04T19:38:47.585Z,23.87
2018-03-04T19:41:13.860Z,24.20
2018-03-04T19:43:41.131Z,22.57
2018-03-04T19:46:07.676Z,23.17
2018-03-04T19:48:34.952Z,24.40
2018-03-04T19:51:01.067Z,24.20
2018-03-04T19:53:27.944Z,22.60
2018-03-04T19:55:54.214Z,22.20
2018-03-04T19:58:22.180Z,25.30
2018-03-04T20:00:48.377Z,24.57
2018-03-04T20:03:15.022Z,23.60
2018-03-04T20:05:41.264Z,23.83
2018-03-04T20:08:08.909Z,23.80
2018-03-04T20:10:37.087Z,24.87
2018-03-04T20:13:03.827Z,24.20
2018-03-04T20:15:30.670Z,25.50
2018-03-04T20:17:57.409Z,26.70
2018-03-04T20:20:26.590Z,26.30
2018-03-04T20:22:54.361Z,29.20
2018-03-04T20:25:20.875Z,26.57
2018-03-04T20:27:47.381Z,28.07
2018-03-04T20:30:13.581Z,25.63
2018-03-04T20:32:40.755Z,26.73
2018-03-04T20:35:08.413Z,24.43
2018-03-04T20:37:34.607Z,26.53
2018-03-04T20:40:00.813Z,26.03
2018-03-04T20:42:27.641Z,25.67
2018-03-04T20:44:54.138Z,25.77
2018-03-04T20:47:20.474Z,26.53
2018-03-04T20:49:47.527Z,25.47
2018-03-04T20:52:15.842Z,26.60
2018-03-04T20:54:43.054Z,27.20
2018-03-04T20:57:12.777Z,26.37
2018-03-04T20:59:40.262Z,25.10
2018-03-04T21:02:07.191Z,25.50
2018-03-04T21:04:33.878Z,25.93
2018-03-04T21:07:00.072Z,23.13
2018-03-04T21:09:26.362Z,23.10
2018-03-04T21:11:53.407Z,25.67
2018-03-04T21:14:19.720Z,23.60
2018-03-04T21:16:45.870Z,28.57
2018-03-04T21:19:12.840Z,25.43
2018-03-04T21:21:39.414Z,24.03
2018-03-04T21:24:05.950Z,24.60
2018-03-04T21:26:32.085Z,25.20
2018-03-04T21:28:58.548Z,27.03
2018-03-04T21:31:25.518Z,24.23
2018-03-04T21:33:51.711Z,25.90
2018-03-04T21:36:18.868Z,25.03
2018-03-04T21:38:45.202Z,26.97
2018-03-04T21:41:12.251Z,26.43
2018-03-04T21:43:40.021Z,26.40
2018-03-04T21:46:06.733Z,27.30
2018-03-04T21:48:33.119Z,25.57
2018-03-04T21:51:00.440Z,26.40
2018-03-04T21:53:26.700Z,27.43
2018-03-04T21:55:52.909Z,26.37
2018-03-04T21:58:19.111Z,26.93
2018-03-04T22:00:45.307Z,26.70
2018-03-04T22:03:13.744Z,26.10
2018-03-04T22:05:40.048Z,25.90
2018-03-04T22:08:09.372Z,25.00
2018-03-04T22:10:35.704Z,27.10
2018-03-04T22:13:02.002Z,25.57
2018-03-04T22:15:28.175Z,28.90
2018-03-04T22:17:54.422Z,26.73
2018-03-04T22:20:21.045Z,37.77
2018-03-04T22:22:47.678Z,31.50
2018-03-04T22:25:14.322Z,27.77
2018-03-04T22:27:40.450Z,29.50
2018-03-04T22:30:06.628Z,28.73
2018-03-04T22:32:34.226Z,27.20
2018-03-04T22:35:01.140Z,28.70
2018-03-04T22:37:29.158Z,26.47
2018-03-04T22:39:55.537Z,26.60
2018-03-04T22:42:22.570Z,27.47
2018-03-04T22:44:51.099Z,26.50
2018-03-04T22:47:17.524Z,27.13
2018-03-04T22:49:44.537Z,26.70
2018-03-04T22:52:11.047Z,24.13
2018-03-04T22:54:37.579Z,26.50
2018-03-04T22:57:03.764Z,27.73
2018-03-04T22:59:30.291Z,25.30
2018-03-04T23:01:57.141Z,25.73
2018-03-04T23:04:24.105Z,26.23
2018-03-04T23:06:50.209Z,26.97
2018-03-04T23:09:17.283Z,25.67
2018-03-04T23:11:44.212Z,25.43
2018-03-04T23:14:11.109Z,25.40
2018-03-04T23:16:37.327Z,25.40
2018-03-04T23:19:04.802Z,25.43
2018-03-04T23:21:31.417Z,25.70
2018-03-04T23:23:59.867Z,23.43
2018-03-04T23:26:26.043Z,23.73
2018-03-04T23:28:52.229Z,23.90
2018-03-04T23:31:18.620Z,26.57
2018-03-04T23:33:44.767Z,27.20
2018-03-04T23:36:10.946Z,23.60
2018-03-04T23:38:37.897Z,24.53
2018-03-04T23:41:04.262Z,24.00
2018-03-04T23:43:30.379Z,24.13
2018-03-04T23:45:56.660Z,23.03
2018-03-04T23:48:24.268Z,24.40
2018-03-04T23:50:52.348Z,24.83
2018-03-04T23:53:19.277Z,23.90
2018-03-04T23:55:45.603Z,25.37
2018-03-04T23:58:11.667Z,26.73
